sensor_id;sensor_type;location;lat;lon;timestamp;temperature;humidity
17948;DHT22;9099;47.958;11.366;2022-10-04T00:00:44;8.30;99.90
17948;DHT22;9099;47.958;11.366;2022-10-04T00:03:17;8.30;99.90
17948;DHT22;9099;47.958;11.366;2022-10-04T00:05:48;8.30;99.90
17948;DHT22;9099;47.958;11.366;2022-10-04T00:08:23;8.30;99.90
17948;DHT22;9099;47.958;11.366;2022-10-04T00:11:03;8.30;99.90
17948;DHT22;9099;47.958;11.366;2022-10-04T00:13:31;8.30;99.90
17948;DHT22;9099;47.958;11.366;2022-10-04T00:15:59;8.30;99.90
17948;DHT22;9099;47.958;11.366;2022-10-04T00:18:29;8.30;99.90
17948;DHT22;9099;47.958;11.366;2022-10-04T00:21:02;8.30;99.90
17948;DHT22;9099;47.958;11.366;2022-10-04T00:23:44;8.30;99.90
17948;DHT22;9099;47.958;11.366;2022-10-04T00:29:33;8.10;99.90
17948;DHT22;9099;47.958;11.366;2022-10-04T00:32:23;8.00;99.90
17948;DHT22;9099;47.958;11.366;2022-10-04T00:34:51;7.90;99.90
17948;DHT22;9099;47.958;11.366;2022-10-04T00:37:19;7.80;99.90
17948;DHT22;9099;47.958;11.366;2022-10-04T00:39:47;7.80;99.90
17948;DHT22;9099;47.958;11.366;2022-10-04T00:42:45;7.80;99.90
17948;DHT22;9099;47.958;11.366;2022-10-04T00:45:36;7.80;99.90
17948;DHT22;9099;47.958;11.366;2022-10-04T00:48:29;7.80;99.90
17948;DHT22;9099;47.958;11.366;2022-10-04T00:51:01;7.80;99.90
17948;DHT22;9099;47.958;11.366;2022-10-04T00:53:50;7.80;99.90
17948;DHT22;9099;47.958;11.366;2022-10-04T00:56:22;7.70;99.90
17948;DHT22;9099;47.958;11.366;2022-10-04T01:01:56;7.80;99.90
17948;DHT22;9099;47.958;11.366;2022-10-04T01:04:28;7.80;99.90
17948;DHT22;9099;47.958;11.366;2022-10-04T01:06:58;7.80;99.90
17948;DHT22;9099;47.958;11.366;2022-10-04T01:09:26;7.80;99.90
17948;DHT22;9099;47.958;11.366;2022-10-04T01:11:59;7.80;99.90
17948;DHT22;9099;47.958;11.366;2022-10-04T01:14:33;7.90;99.90
17948;DHT22;9099;47.958;11.366;2022-10-04T01:17:07;7.90;99.90
17948;DHT22;9099;47.958;11.366;2022-10-04T01:19:34;7.90;99.90
17948;DHT22;9099;47.958;11.366;2022-10-04T01:22:10;7.90;99.90
17948;DHT22;9099;47.958;11.366;2022-10-04T01:24:40;7.90;99.90
17948;DHT22;9099;47.958;11.366;2022-10-04T01:27:32;8.00;99.90
17948;DHT22;9099;47.958;11.366;2022-10-04T01:30:00;7.90;99.90
17948;DHT22;9099;47.958;11.366;2022-10-04T01:32:27;7.80;99.90
17948;DHT22;9099;47.958;11.366;2022-10-04T01:34:55;7.80;99.90
17948;DHT22;9099;47.958;11.366;2022-10-04T01:37:22;7.70;99.90
17948;DHT22;9099;47.958;11.366;2022-10-04T01:39:50;7.70;99.90
17948;DHT22;9099;47.958;11.366;2022-10-04T01:42:21;7.60;99.90
17948;DHT22;9099;47.958;11.366;2022-10-04T01:44:53;7.60;99.90
17948;DHT22;9099;47.958;11.366;2022-10-04T01:47:25;7.60;99.90
17948;DHT22;9099;47.958;11.366;2022-10-04T01:49:55;7.60;99.90
17948;DHT22;9099;47.958;11.366;2022-10-04T01:52:28;7.60;99.90
17948;DHT22;9099;47.958;11.366;2022-10-04T01:55:02;7.70;99.90
17948;DHT22;9099;47.958;11.366;2022-10-04T01:57:34;7.70;99.90
17948;DHT22;9099;47.958;11.366;2022-10-04T02:00:05;7.70;99.90
17948;DHT22;9099;47.958;11.366;2022-10-04T02:02:35;7.60;99.90
17948;DHT22;9099;47.958;11.366;2022-10-04T02:05:07;7.60;99.90
17948;DHT22;9099;47.958;11.366;2022-10-04T02:07:36;7.60;99.90
17948;DHT22;9099;47.958;11.366;2022-10-04T02:10:08;7.60;99.90
17948;DHT22;9099;47.958;11.366;2022-10-04T02:12:37;7.60;99.90
17948;DHT22;9099;47.958;11.366;2022-10-04T02:15:09;7.60;99.90
17948;DHT22;9099;47.958;11.366;2022-10-04T02:17:38;7.60;99.90
17948;DHT22;9099;47.958;11.366;2022-10-04T02:20:13;7.60;99.90
17948;DHT22;9099;47.958;11.366;2022-10-04T02:22:41;7.60;99.90
17948;DHT22;9099;47.958;11.366;2022-10-04T02:25:11;7.60;99.90
17948;DHT22;9099;47.958;11.366;2022-10-04T02:27:39;7.60;99.90
17948;DHT22;9099;47.958;11.366;2022-10-04T02:30:07;7.70;99.90
17948;DHT22;9099;47.958;11.366;2022-10-04T02:32:36;7.70;99.90
17948;DHT22;9099;47.958;11.366;2022-10-04T02:35:22;7.70;99.90
17948;DHT22;9099;47.958;11.366;2022-10-04T02:37:57;7.70;99.90
17948;DHT22;9099;47.958;11.366;2022-10-04T02:40:30;7.70;99.90
17948;DHT22;9099;47.958;11.366;2022-10-04T02:43:00;7.70;99.90
17948;DHT22;9099;47.958;11.366;2022-10-04T02:45:34;7.70;99.90
17948;DHT22;9099;47.958;11.366;2022-10-04T02:48:21;7.70;99.90
17948;DHT22;9099;47.958;11.366;2022-10-04T02:50:53;7.70;99.90
17948;DHT22;9099;47.958;11.366;2022-10-04T02:53:24;7.70;99.90
17948;DHT22;9099;47.958;11.366;2022-10-04T02:55:55;7.70;99.90
17948;DHT22;9099;47.958;11.366;2022-10-04T02:58:23;7.70;99.90
17948;DHT22;9099;47.958;11.366;2022-10-04T03:00:55;7.70;99.90
17948;DHT22;9099;47.958;11.366;2022-10-04T03:03:24;7.70;99.90
17948;DHT22;9099;47.958;11.366;2022-10-04T03:05:55;7.70;99.90
17948;DHT22;9099;47.958;11.366;2022-10-04T03:08:23;7.60;99.90
17948;DHT22;9099;47.958;11.366;2022-10-04T03:10:51;7.60;99.90
17948;DHT22;9099;47.958;11.366;2022-10-04T03:13:19;7.60;99.90
17948;DHT22;9099;47.958;11.366;2022-10-04T03:15:47;7.70;99.90
17948;DHT22;9099;47.958;11.366;2022-10-04T03:18:15;7.60;99.90
17948;DHT22;9099;47.958;11.366;2022-10-04T03:20:44;7.60;99.90
17948;DHT22;9099;47.958;11.366;2022-10-04T03:23:12;7.60;99.90
17948;DHT22;9099;47.958;11.366;2022-10-04T03:25:46;7.60;99.90
17948;DHT22;9099;47.958;11.366;2022-10-04T03:28:14;7.60;99.90
17948;DHT22;9099;47.958;11.366;2022-10-04T03:30:44;7.60;99.90
17948;DHT22;9099;47.958;11.366;2022-10-04T03:33:16;7.60;99.90
17948;DHT22;9099;47.958;11.366;2022-10-04T03:35:46;7.60;99.90
17948;DHT22;9099;47.958;11.366;2022-10-04T03:38:15;7.60;99.90
17948;DHT22;9099;47.958;11.366;2022-10-04T03:40:48;7.60;99.90
17948;DHT22;9099;47.958;11.366;2022-10-04T03:43:19;7.60;99.90
17948;DHT22;9099;47.958;11.366;2022-10-04T03:45:48;7.40;99.90
17948;DHT22;9099;47.958;11.366;2022-10-04T03:48:24;7.30;99.90
17948;DHT22;9099;47.958;11.366;2022-10-04T03:50:52;7.20;99.90
17948;DHT22;9099;47.958;11.366;2022-10-04T03:53:27;7.10;99.90
17948;DHT22;9099;47.958;11.366;2022-10-04T03:55:56;7.00;99.90
17948;DHT22;9099;47.958;11.366;2022-10-04T03:58:23;6.90;99.90
17948;DHT22;9099;47.958;11.366;2022-10-04T04:01:03;6.80;99.90
17948;DHT22;9099;47.958;11.366;2022-10-04T04:03:37;6.90;99.90
17948;DHT22;9099;47.958;11.366;2022-10-04T04:06:14;6.80;99.90
17948;DHT22;9099;47.958;11.366;2022-10-04T04:08:42;6.90;99.90
17948;DHT22;9099;47.958;11.366;2022-10-04T04:11:15;6.90;99.90
17948;DHT22;9099;47.958;11.366;2022-10-04T04:13:47;6.90;99.90
17948;DHT22;9099;47.958;11.366;2022-10-04T04:16:18;6.90;99.90
17948;DHT22;9099;47.958;11.366;2022-10-04T04:18:47;7.00;99.90
17948;DHT22;9099;47.958;11.366;2022-10-04T04:21:17;7.00;99.90
17948;DHT22;9099;47.958;11.366;2022-10-04T04:23:48;7.10;99.90
17948;DHT22;9099;47.958;11.366;2022-10-04T04:26:19;7.10;99.90
17948;DHT22;9099;47.958;11.366;2022-10-04T04:28:51;7.10;99.90
17948;DHT22;9099;47.958;11.366;2022-10-04T04:31:21;7.20;99.90
17948;DHT22;9099;47.958;11.366;2022-10-04T04:33:54;7.20;99.90
17948;DHT22;9099;47.958;11.366;2022-10-04T04:36:24;7.20;99.90
17948;DHT22;9099;47.958;11.366;2022-10-04T04:38:51;7.20;99.90
17948;DHT22;9099;47.958;11.366;2022-10-04T04:41:36;7.30;99.90
17948;DHT22;9099;47.958;11.366;2022-10-04T04:44:15;7.30;99.90
17948;DHT22;9099;47.958;11.366;2022-10-04T04:46:44;7.10;99.90
17948;DHT22;9099;47.958;11.366;2022-10-04T04:49:11;7.00;99.90
17948;DHT22;9099;47.958;11.366;2022-10-04T04:51:45;6.70;99.90
17948;DHT22;9099;47.958;11.366;2022-10-04T04:54:14;6.60;99.90
17948;DHT22;9099;47.958;11.366;2022-10-04T04:56:42;6.50;99.90
17948;DHT22;9099;47.958;11.366;2022-10-04T04:59:11;6.40;99.90
17948;DHT22;9099;47.958;11.366;2022-10-04T05:01:42;6.40;99.90
17948;DHT22;9099;47.958;11.366;2022-10-04T05:04:17;6.40;99.90
17948;DHT22;9099;47.958;11.366;2022-10-04T05:06:46;6.40;99.90
17948;DHT22;9099;47.958;11.366;2022-10-04T05:09:23;6.40;99.90
17948;DHT22;9099;47.958;11.366;2022-10-04T05:11:53;6.40;99.90
17948;DHT22;9099;47.958;11.366;2022-10-04T05:14:22;6.50;99.90
17948;DHT22;9099;47.958;11.366;2022-10-04T05:16:50;6.50;99.90
17948;DHT22;9099;47.958;11.366;2022-10-04T05:19:21;6.60;99.90
17948;DHT22;9099;47.958;11.366;2022-10-04T05:21:53;6.60;99.90
17948;DHT22;9099;47.958;11.366;2022-10-04T05:24:23;6.60;99.90
17948;DHT22;9099;47.958;11.366;2022-10-04T05:26:54;6.70;99.90
17948;DHT22;9099;47.958;11.366;2022-10-04T05:29:24;6.80;99.90
17948;DHT22;9099;47.958;11.366;2022-10-04T05:31:59;6.80;99.90
17948;DHT22;9099;47.958;11.366;2022-10-04T05:34:35;6.90;99.90
17948;DHT22;9099;47.958;11.366;2022-10-04T05:37:24;6.90;99.90
17948;DHT22;9099;47.958;11.366;2022-10-04T05:40:07;7.00;99.90
17948;DHT22;9099;47.958;11.366;2022-10-04T05:42:42;7.10;99.90
17948;DHT22;9099;47.958;11.366;2022-10-04T05:45:17;7.20;99.90
17948;DHT22;9099;47.958;11.366;2022-10-04T05:47:46;7.30;99.90
17948;DHT22;9099;47.958;11.366;2022-10-04T05:50:20;7.50;99.90
17948;DHT22;9099;47.958;11.366;2022-10-04T05:52:50;7.70;99.90
17948;DHT22;9099;47.958;11.366;2022-10-04T05:55:24;8.00;99.90
17948;DHT22;9099;47.958;11.366;2022-10-04T06:00:55;8.10;99.90
17948;DHT22;9099;47.958;11.366;2022-10-04T06:03:33;8.10;99.90
17948;DHT22;9099;47.958;11.366;2022-10-04T06:06:13;8.20;99.90
17948;DHT22;9099;47.958;11.366;2022-10-04T06:08:48;8.30;99.90
17948;DHT22;9099;47.958;11.366;2022-10-04T06:11:30;8.40;99.90
17948;DHT22;9099;47.958;11.366;2022-10-04T06:14:12;8.60;99.90
17948;DHT22;9099;47.958;11.366;2022-10-04T06:16:54;8.80;99.90
17948;DHT22;9099;47.958;11.366;2022-10-04T06:19:42;8.80;99.90
17948;DHT22;9099;47.958;11.366;2022-10-04T06:22:17;9.00;99.90
17948;DHT22;9099;47.958;11.366;2022-10-04T06:24:48;8.90;99.90
17948;DHT22;9099;47.958;11.366;2022-10-04T06:27:19;8.90;99.90
17948;DHT22;9099;47.958;11.366;2022-10-04T06:29:51;9.00;99.90
17948;DHT22;9099;47.958;11.366;2022-10-04T06:35:45;9.30;99.90
17948;DHT22;9099;47.958;11.366;2022-10-04T06:38:27;9.60;99.90
17948;DHT22;9099;47.958;11.366;2022-10-04T06:41:11;9.80;99.90
17948;DHT22;9099;47.958;11.366;2022-10-04T06:43:53;10.00;99.90
17948;DHT22;9099;47.958;11.366;2022-10-04T06:46:32;10.50;99.90
17948;DHT22;9099;47.958;11.366;2022-10-04T06:49:19;11.30;99.90
17948;DHT22;9099;47.958;11.366;2022-10-04T06:52:13;12.00;99.90
17948;DHT22;9099;47.958;11.366;2022-10-04T06:55:02;12.70;99.90
17948;DHT22;9099;47.958;11.366;2022-10-04T06:58:03;13.40;99.90
17948;DHT22;9099;47.958;11.366;2022-10-04T07:00:38;14.60;99.90
17948;DHT22;9099;47.958;11.366;2022-10-04T07:03:11;15.60;99.90
17948;DHT22;9099;47.958;11.366;2022-10-04T07:05:44;16.70;99.90
17948;DHT22;9099;47.958;11.366;2022-10-04T07:08:17;17.30;99.90
17948;DHT22;9099;47.958;11.366;2022-10-04T07:10:58;17.10;99.90
17948;DHT22;9099;47.958;11.366;2022-10-04T07:13:35;16.60;99.90
17948;DHT22;9099;47.958;11.366;2022-10-04T07:16:08;16.50;99.90
17948;DHT22;9099;47.958;11.366;2022-10-04T07:18:52;16.80;99.90
17948;DHT22;9099;47.958;11.366;2022-10-04T07:21:21;16.90;99.90
17948;DHT22;9099;47.958;11.366;2022-10-04T07:23:55;16.80;99.90
17948;DHT22;9099;47.958;11.366;2022-10-04T07:26:29;16.40;99.90
17948;DHT22;9099;47.958;11.366;2022-10-04T07:29:00;15.90;99.90
17948;DHT22;9099;47.958;11.366;2022-10-04T07:31:50;15.40;99.90
17948;DHT22;9099;47.958;11.366;2022-10-04T07:34:23;15.00;99.90
17948;DHT22;9099;47.958;11.366;2022-10-04T07:36:53;14.80;99.90
17948;DHT22;9099;47.958;11.366;2022-10-04T07:39:24;14.70;99.90
17948;DHT22;9099;47.958;11.366;2022-10-04T07:41:55;14.50;99.90
17948;DHT22;9099;47.958;11.366;2022-10-04T07:44:32;14.30;99.90
17948;DHT22;9099;47.958;11.366;2022-10-04T07:47:04;14.20;99.90
17948;DHT22;9099;47.958;11.366;2022-10-04T07:49:39;14.40;99.90
17948;DHT22;9099;47.958;11.366;2022-10-04T07:52:30;14.80;99.90
17948;DHT22;9099;47.958;11.366;2022-10-04T07:55:11;15.20;99.90
17948;DHT22;9099;47.958;11.366;2022-10-04T07:57:49;15.00;99.90
17948;DHT22;9099;47.958;11.366;2022-10-04T08:00:21;15.00;99.90
17948;DHT22;9099;47.958;11.366;2022-10-04T08:05:40;15.40;99.90
17948;DHT22;9099;47.958;11.366;2022-10-04T08:08:26;15.60;99.90
17948;DHT22;9099;47.958;11.366;2022-10-04T08:11:07;15.70;99.90
17948;DHT22;9099;47.958;11.366;2022-10-04T08:13:48;16.00;99.90
17948;DHT22;9099;47.958;11.366;2022-10-04T08:16:24;16.20;99.90
17948;DHT22;9099;47.958;11.366;2022-10-04T08:19:12;16.40;99.90
17948;DHT22;9099;47.958;11.366;2022-10-04T08:21:50;16.50;99.90
17948;DHT22;9099;47.958;11.366;2022-10-04T08:24:24;16.80;99.90
17948;DHT22;9099;47.958;11.366;2022-10-04T08:27:01;17.30;99.90
17948;DHT22;9099;47.958;11.366;2022-10-04T08:29:50;17.80;99.90
17948;DHT22;9099;47.958;11.366;2022-10-04T08:32:30;17.80;99.90
17948;DHT22;9099;47.958;11.366;2022-10-04T08:35:12;17.90;99.90
17948;DHT22;9099;47.958;11.366;2022-10-04T08:37:51;18.40;99.90
17948;DHT22;9099;47.958;11.366;2022-10-04T08:40:48;18.30;99.90
17948;DHT22;9099;47.958;11.366;2022-10-04T08:43:39;18.20;99.90
17948;DHT22;9099;47.958;11.366;2022-10-04T08:46:33;18.50;99.90
17948;DHT22;9099;47.958;11.366;2022-10-04T08:49:40;18.40;99.90
17948;DHT22;9099;47.958;11.366;2022-10-04T08:52:41;18.70;99.90
17948;DHT22;9099;47.958;11.366;2022-10-04T08:55:52;18.90;99.90
17948;DHT22;9099;47.958;11.366;2022-10-04T08:58:50;18.80;99.90
17948;DHT22;9099;47.958;11.366;2022-10-04T09:01:43;18.60;99.90
17948;DHT22;9099;47.958;11.366;2022-10-04T09:07:48;18.40;99.90
17948;DHT22;9099;47.958;11.366;2022-10-04T09:10:36;18.60;99.90
17948;DHT22;9099;47.958;11.366;2022-10-04T09:13:18;19.20;99.90
17948;DHT22;9099;47.958;11.366;2022-10-04T09:15:53;19.40;99.90
17948;DHT22;9099;47.958;11.366;2022-10-04T09:18:51;19.20;99.90
17948;DHT22;9099;47.958;11.366;2022-10-04T09:21:26;19.30;99.90
17948;DHT22;9099;47.958;11.366;2022-10-04T09:24:26;19.50;99.90
17948;DHT22;9099;47.958;11.366;2022-10-04T09:27:10;19.50;99.90
17948;DHT22;9099;47.958;11.366;2022-10-04T09:30:04;20.00;99.90
17948;DHT22;9099;47.958;11.366;2022-10-04T09:35:52;19.90;99.90
17948;DHT22;9099;47.958;11.366;2022-10-04T09:38:36;19.70;99.90
17948;DHT22;9099;47.958;11.366;2022-10-04T09:41:33;19.60;99.90
17948;DHT22;9099;47.958;11.366;2022-10-04T09:44:19;19.30;99.90
17948;DHT22;9099;47.958;11.366;2022-10-04T09:47:02;19.20;99.90
17948;DHT22;9099;47.958;11.366;2022-10-04T09:50:08;18.80;99.90
17948;DHT22;9099;47.958;11.366;2022-10-04T09:52:49;18.80;99.90
17948;DHT22;9099;47.958;11.366;2022-10-04T09:55:32;18.50;99.90
17948;DHT22;9099;47.958;11.366;2022-10-04T09:58:21;18.50;99.90
17948;DHT22;9099;47.958;11.366;2022-10-04T10:00:58;18.90;99.90
17948;DHT22;9099;47.958;11.366;2022-10-04T10:03:51;19.00;99.90
17948;DHT22;9099;47.958;11.366;2022-10-04T10:06:44;19.00;99.90
17948;DHT22;9099;47.958;11.366;2022-10-04T10:09:24;19.20;99.90
17948;DHT22;9099;47.958;11.366;2022-10-04T10:12:28;18.90;99.90
17948;DHT22;9099;47.958;11.366;2022-10-04T10:15:23;18.70;99.90
17948;DHT22;9099;47.958;11.366;2022-10-04T10:17:56;18.70;99.90
17948;DHT22;9099;47.958;11.366;2022-10-04T10:20:44;18.30;99.90
17948;DHT22;9099;47.958;11.366;2022-10-04T10:23:31;18.40;99.90
17948;DHT22;9099;47.958;11.366;2022-10-04T10:26:30;18.60;99.90
17948;DHT22;9099;47.958;11.366;2022-10-04T10:29:25;18.90;99.90
17948;DHT22;9099;47.958;11.366;2022-10-04T10:35:12;19.30;99.90
17948;DHT22;9099;47.958;11.366;2022-10-04T10:37:51;18.90;99.90
17948;DHT22;9099;47.958;11.366;2022-10-04T10:40:31;18.80;99.90
17948;DHT22;9099;47.958;11.366;2022-10-04T10:43:12;18.80;99.90
17948;DHT22;9099;47.958;11.366;2022-10-04T10:46:01;19.00;99.90
17948;DHT22;9099;47.958;11.366;2022-10-04T10:48:42;19.10;99.90
17948;DHT22;9099;47.958;11.366;2022-10-04T10:51:16;19.10;99.90
17948;DHT22;9099;47.958;11.366;2022-10-04T10:56:49;19.30;99.90
17948;DHT22;9099;47.958;11.366;2022-10-04T10:59:52;19.50;99.90
17948;DHT22;9099;47.958;11.366;2022-10-04T11:05:51;19.30;99.90
17948;DHT22;9099;47.958;11.366;2022-10-04T11:09:08;19.50;99.90
17948;DHT22;9099;47.958;11.366;2022-10-04T11:14:57;19.30;99.90
17948;DHT22;9099;47.958;11.366;2022-10-04T11:17:53;19.90;99.90
17948;DHT22;9099;47.958;11.366;2022-10-04T11:24:09;21.80;99.90
17948;DHT22;9099;47.958;11.366;2022-10-04T11:26:54;22.20;99.90
17948;DHT22;9099;47.958;11.366;2022-10-04T11:29:36;22.20;99.90
17948;DHT22;9099;47.958;11.366;2022-10-04T11:35:37;22.10;99.90
17948;DHT22;9099;47.958;11.366;2022-10-04T11:38:20;22.10;99.90
17948;DHT22;9099;47.958;11.366;2022-10-04T11:41:06;21.90;99.90
17948;DHT22;9099;47.958;11.366;2022-10-04T11:44:00;21.90;99.90
17948;DHT22;9099;47.958;11.366;2022-10-04T11:46:37;21.90;99.90
17948;DHT22;9099;47.958;11.366;2022-10-04T11:49:23;21.90;99.90
17948;DHT22;9099;47.958;11.366;2022-10-04T11:55:15;21.70;99.90
17948;DHT22;9099;47.958;11.366;2022-10-04T11:57:47;22.00;99.90
17948;DHT22;9099;47.958;11.366;2022-10-04T12:00:18;22.00;99.90
17948;DHT22;9099;47.958;11.366;2022-10-04T12:06:02;22.20;99.90
17948;DHT22;9099;47.958;11.366;2022-10-04T12:08:44;22.70;99.90
17948;DHT22;9099;47.958;11.366;2022-10-04T12:11:40;22.80;99.90
17948;DHT22;9099;47.958;11.366;2022-10-04T12:14:39;22.90;99.90
17948;DHT22;9099;47.958;11.366;2022-10-04T12:20:35;23.40;99.90
17948;DHT22;9099;47.958;11.366;2022-10-04T12:29:31;24.10;99.90
17948;DHT22;9099;47.958;11.366;2022-10-04T12:32:05;23.20;99.90
17948;DHT22;9099;47.958;11.366;2022-10-04T12:34:40;22.40;99.90
17948;DHT22;9099;47.958;11.366;2022-10-04T12:37:19;22.30;99.90
17948;DHT22;9099;47.958;11.366;2022-10-04T12:40:06;23.00;99.90
17948;DHT22;9099;47.958;11.366;2022-10-04T12:42:47;23.20;99.90
17948;DHT22;9099;47.958;11.366;2022-10-04T12:45:38;23.20;99.90
17948;DHT22;9099;47.958;11.366;2022-10-04T12:48:15;22.80;99.90
17948;DHT22;9099;47.958;11.366;2022-10-04T12:50:59;22.60;99.90
17948;DHT22;9099;47.958;11.366;2022-10-04T12:53:35;22.50;99.90
17948;DHT22;9099;47.958;11.366;2022-10-04T12:56:13;22.80;99.90
17948;DHT22;9099;47.958;11.366;2022-10-04T12:59:00;23.10;99.90
17948;DHT22;9099;47.958;11.366;2022-10-04T13:01:34;23.70;99.90
17948;DHT22;9099;47.958;11.366;2022-10-04T13:04:19;24.10;99.90
17948;DHT22;9099;47.958;11.366;2022-10-04T13:07:07;24.30;99.90
17948;DHT22;9099;47.958;11.366;2022-10-04T13:09:47;24.30;99.90
17948;DHT22;9099;47.958;11.366;2022-10-04T13:12:26;23.70;99.90
17948;DHT22;9099;47.958;11.366;2022-10-04T13:15:06;23.30;99.90
17948;DHT22;9099;47.958;11.366;2022-10-04T13:17:44;23.40;99.90
17948;DHT22;9099;47.958;11.366;2022-10-04T13:20:26;24.10;99.90
17948;DHT22;9099;47.958;11.366;2022-10-04T13:22:59;24.40;99.90
17948;DHT22;9099;47.958;11.366;2022-10-04T13:25:43;23.80;99.90
17948;DHT22;9099;47.958;11.366;2022-10-04T13:28:22;23.40;99.90
17948;DHT22;9099;47.958;11.366;2022-10-04T13:30:58;23.70;99.90
17948;DHT22;9099;47.958;11.366;2022-10-04T13:33:35;24.10;99.90
17948;DHT22;9099;47.958;11.366;2022-10-04T13:36:09;23.80;99.90
17948;DHT22;9099;47.958;11.366;2022-10-04T13:41:42;22.50;99.90
17948;DHT22;9099;47.958;11.366;2022-10-04T13:47:24;23.00;99.90
17948;DHT22;9099;47.958;11.366;2022-10-04T13:50:11;23.10;99.90
17948;DHT22;9099;47.958;11.366;2022-10-04T13:52:53;23.00;99.90
17948;DHT22;9099;47.958;11.366;2022-10-04T13:55:44;22.70;99.90
17948;DHT22;9099;47.958;11.366;2022-10-04T13:58:34;22.90;99.90
17948;DHT22;9099;47.958;11.366;2022-10-04T14:01:34;23.60;99.90
17948;DHT22;9099;47.958;11.366;2022-10-04T14:04:18;24.10;99.90
17948;DHT22;9099;47.958;11.366;2022-10-04T14:10:02;24.30;99.90
17948;DHT22;9099;47.958;11.366;2022-10-04T14:16:04;24.00;99.90
17948;DHT22;9099;47.958;11.366;2022-10-04T14:19:13;24.60;99.90
17948;DHT22;9099;47.958;11.366;2022-10-04T14:25:08;24.70;99.90
17948;DHT22;9099;47.958;11.366;2022-10-04T14:28:15;23.80;99.90
17948;DHT22;9099;47.958;11.366;2022-10-04T14:31:01;24.00;99.90
17948;DHT22;9099;47.958;11.366;2022-10-04T14:33:54;24.40;99.90
17948;DHT22;9099;47.958;11.366;2022-10-04T14:36:58;24.70;99.90
17948;DHT22;9099;47.958;11.366;2022-10-04T14:39:56;24.10;99.90
17948;DHT22;9099;47.958;11.366;2022-10-04T14:42:44;23.80;99.90
17948;DHT22;9099;47.958;11.366;2022-10-04T14:45:32;23.60;99.90
17948;DHT22;9099;47.958;11.366;2022-10-04T14:48:23;23.10;99.90
17948;DHT22;9099;47.958;11.366;2022-10-04T14:51:03;22.60;99.90
17948;DHT22;9099;47.958;11.366;2022-10-04T14:53:46;22.30;99.90
17948;DHT22;9099;47.958;11.366;2022-10-04T14:56:33;22.20;99.90
17948;DHT22;9099;47.958;11.366;2022-10-04T14:59:20;22.20;99.90
17948;DHT22;9099;47.958;11.366;2022-10-04T15:02:12;22.10;99.90
17948;DHT22;9099;47.958;11.366;2022-10-04T15:05:05;21.90;99.90
17948;DHT22;9099;47.958;11.366;2022-10-04T15:07:38;22.20;99.90
17948;DHT22;9099;47.958;11.366;2022-10-04T15:10:12;22.40;99.90
17948;DHT22;9099;47.958;11.366;2022-10-04T15:12:52;22.40;99.90
17948;DHT22;9099;47.958;11.366;2022-10-04T15:15:37;22.50;99.90
17948;DHT22;9099;47.958;11.366;2022-10-04T15:18:25;22.80;99.90
17948;DHT22;9099;47.958;11.366;2022-10-04T15:20:57;22.80;99.90
17948;DHT22;9099;47.958;11.366;2022-10-04T15:23:37;22.80;99.90
17948;DHT22;9099;47.958;11.366;2022-10-04T15:26:46;23.00;99.90
17948;DHT22;9099;47.958;11.366;2022-10-04T15:29:22;23.00;99.90
17948;DHT22;9099;47.958;11.366;2022-10-04T15:32:00;23.10;99.90
17948;DHT22;9099;47.958;11.366;2022-10-04T15:34:34;23.10;99.90
17948;DHT22;9099;47.958;11.366;2022-10-04T15:37:12;23.00;99.90
17948;DHT22;9099;47.958;11.366;2022-10-04T15:40:01;22.60;99.90
17948;DHT22;9099;47.958;11.366;2022-10-04T15:42:33;22.20;99.90
17948;DHT22;9099;47.958;11.366;2022-10-04T15:48:21;21.50;99.90
17948;DHT22;9099;47.958;11.366;2022-10-04T15:50:59;21.50;99.90
17948;DHT22;9099;47.958;11.366;2022-10-04T15:53:53;21.10;99.90
17948;DHT22;9099;47.958;11.366;2022-10-04T15:56:34;20.60;99.90
17948;DHT22;9099;47.958;11.366;2022-10-04T15:59:24;20.20;99.90
17948;DHT22;9099;47.958;11.366;2022-10-04T16:02:08;19.90;99.90
17948;DHT22;9099;47.958;11.366;2022-10-04T16:04:46;19.60;99.90
17948;DHT22;9099;47.958;11.366;2022-10-04T16:07:35;19.40;99.90
17948;DHT22;9099;47.958;11.366;2022-10-04T16:10:23;19.30;99.90
17948;DHT22;9099;47.958;11.366;2022-10-04T16:16:23;18.80;99.90
17948;DHT22;9099;47.958;11.366;2022-10-04T16:19:02;18.70;99.90
17948;DHT22;9099;47.958;11.366;2022-10-04T16:21:36;18.40;99.90
17948;DHT22;9099;47.958;11.366;2022-10-04T16:24:26;18.20;99.90
17948;DHT22;9099;47.958;11.366;2022-10-04T16:27:18;18.10;99.90
17948;DHT22;9099;47.958;11.366;2022-10-04T16:29:53;17.90;99.90
17948;DHT22;9099;47.958;11.366;2022-10-04T16:32:26;17.80;99.90
17948;DHT22;9099;47.958;11.366;2022-10-04T16:34:55;17.70;99.90
17948;DHT22;9099;47.958;11.366;2022-10-04T16:37:31;17.60;99.90
17948;DHT22;9099;47.958;11.366;2022-10-04T16:40:00;17.40;99.90
17948;DHT22;9099;47.958;11.366;2022-10-04T16:42:51;17.20;99.90
17948;DHT22;9099;47.958;11.366;2022-10-04T16:45:40;16.90;99.90
17948;DHT22;9099;47.958;11.366;2022-10-04T16:48:22;16.50;99.90
17948;DHT22;9099;47.958;11.366;2022-10-04T16:53:52;16.30;99.90
17948;DHT22;9099;47.958;11.366;2022-10-04T16:56:24;16.20;99.90
17948;DHT22;9099;47.958;11.366;2022-10-04T16:58:56;16.20;99.90
17948;DHT22;9099;47.958;11.366;2022-10-04T17:02:01;16.20;99.90
17948;DHT22;9099;47.958;11.366;2022-10-04T17:04:48;16.10;99.90
17948;DHT22;9099;47.958;11.366;2022-10-04T17:07:28;16.00;99.90
17948;DHT22;9099;47.958;11.366;2022-10-04T17:10:15;15.80;99.90
17948;DHT22;9099;47.958;11.366;2022-10-04T17:12:50;15.70;99.90
17948;DHT22;9099;47.958;11.366;2022-10-04T17:15:24;15.70;99.90
17948;DHT22;9099;47.958;11.366;2022-10-04T17:18:12;15.60;99.90
17948;DHT22;9099;47.958;11.366;2022-10-04T17:20:52;15.60;99.90
17948;DHT22;9099;47.958;11.366;2022-10-04T17:23:54;15.40;99.90
17948;DHT22;9099;47.958;11.366;2022-10-04T17:26:41;15.30;99.90
17948;DHT22;9099;47.958;11.366;2022-10-04T17:29:35;15.20;99.90
17948;DHT22;9099;47.958;11.366;2022-10-04T17:32:10;15.10;99.90
17948;DHT22;9099;47.958;11.366;2022-10-04T17:34:50;14.90;99.90
17948;DHT22;9099;47.958;11.366;2022-10-04T17:37:27;14.80;99.90
17948;DHT22;9099;47.958;11.366;2022-10-04T17:40:04;14.80;99.90
17948;DHT22;9099;47.958;11.366;2022-10-04T17:42:41;14.70;99.90
17948;DHT22;9099;47.958;11.366;2022-10-04T17:45:34;14.60;99.90
17948;DHT22;9099;47.958;11.366;2022-10-04T17:48:09;14.50;99.90
17948;DHT22;9099;47.958;11.366;2022-10-04T17:50:59;14.50;99.90
17948;DHT22;9099;47.958;11.366;2022-10-04T17:53:49;14.50;99.90
17948;DHT22;9099;47.958;11.366;2022-10-04T17:56:39;14.40;99.90
17948;DHT22;9099;47.958;11.366;2022-10-04T17:59:11;14.30;99.90
17948;DHT22;9099;47.958;11.366;2022-10-04T18:01:44;14.30;99.90
17948;DHT22;9099;47.958;11.366;2022-10-04T18:04:18;14.30;99.90
17948;DHT22;9099;47.958;11.366;2022-10-04T18:06:53;14.20;99.90
17948;DHT22;9099;47.958;11.366;2022-10-04T18:09:27;14.00;99.90
17948;DHT22;9099;47.958;11.366;2022-10-04T18:11:59;13.90;99.90
17948;DHT22;9099;47.958;11.366;2022-10-04T18:14:54;13.80;99.90